sensor_id;sensor_type;location;lat;lon;timestamp;pressure;altitude;pressure_sealevel;temperature;humidity
10992;BME280;5549;47.028;15.514;2023-05-16T00:00:15;96125.41;;;14.77;68.31
10992;BME280;5549;47.028;15.514;2023-05-16T00:02:45;96125.09;;;14.80;67.78
10992;BME280;5549;47.028;15.514;2023-05-16T00:05:16;96121.63;;;14.80;67.54
10992;BME280;5549;47.028;15.514;2023-05-16T00:07:46;96121.78;;;14.78;66.91
10992;BME280;5549;47.028;15.514;2023-05-16T00:10:15;96124.09;;;14.73;66.94
10992;BME280;5549;47.028;15.514;2023-05-16T00:12:45;96111.88;;;14.72;67.03
10992;BME280;5549;47.028;15.514;2023-05-16T00:15:17;96114.84;;;14.61;68.17
10992;BME280;5549;47.028;15.514;2023-05-16T00:17:47;96116.50;;;14.46;67.93
10992;BME280;5549;47.028;15.514;2023-05-16T00:20:17;96099.66;;;14.47;68.47
10992;BME280;5549;47.028;15.514;2023-05-16T00:22:48;96103.13;;;14.47;68.55
10992;BME280;5549;47.028;15.514;2023-05-16T00:25:16;96102.72;;;14.26;69.81
10992;BME280;5549;47.028;15.514;2023-05-16T00:27:46;96096.56;;;14.01;71.85
10992;BME280;5549;47.028;15.514;2023-05-16T00:30:14;96094.91;;;13.92;71.82
10992;BME280;5549;47.028;15.514;2023-05-16T00:32:44;96094.75;;;13.93;71.77
10992;BME280;5549;47.028;15.514;2023-05-16T00:35:11;96089.31;;;14.03;71.83
10992;BME280;5549;47.028;15.514;2023-05-16T00:37:40;96078.22;;;13.91;72.64
10992;BME280;5549;47.028;15.514;2023-05-16T00:40:09;96071.16;;;14.00;72.19
10992;BME280;5549;47.028;15.514;2023-05-16T00:42:39;96063.16;;;13.84;72.88
10992;BME280;5549;47.028;15.514;2023-05-16T00:45:09;96056.19;;;13.66;73.83
10992;BME280;5549;47.028;15.514;2023-05-16T00:47:37;96058.66;;;13.68;73.97
10992;BME280;5549;47.028;15.514;2023-05-16T00:50:08;96042.88;;;13.76;73.25
10992;BME280;5549;47.028;15.514;2023-05-16T00:52:35;96041.53;;;13.72;73.14
10992;BME280;5549;47.028;15.514;2023-05-16T00:55:06;96050.06;;;13.58;73.55
10992;BME280;5549;47.028;15.514;2023-05-16T00:57:36;96047.97;;;13.69;73.14
10992;BME280;5549;47.028;15.514;2023-05-16T01:00:07;96056.56;;;13.79;72.88
10992;BME280;5549;47.028;15.514;2023-05-16T01:02:38;96064.56;;;14.04;71.73
10992;BME280;5549;47.028;15.514;2023-05-16T01:05:08;96068.53;;;14.16;71.51
10992;BME280;5549;47.028;15.514;2023-05-16T01:07:36;96054.69;;;14.22;71.38
10992;BME280;5549;47.028;15.514;2023-05-16T01:10:07;96049.25;;;14.24;70.82
10992;BME280;5549;47.028;15.514;2023-05-16T01:12:41;96064.75;;;14.10;71.21
10992;BME280;5549;47.028;15.514;2023-05-16T01:15:20;96058.94;;;13.99;71.14
10992;BME280;5549;47.028;15.514;2023-05-16T01:17:56;96059.31;;;14.12;70.42
10992;BME280;5549;47.028;15.514;2023-05-16T01:20:36;96062.59;;;14.14;71.25
10992;BME280;5549;47.028;15.514;2023-05-16T01:23:42;96060.94;;;14.05;71.73
10992;BME280;5549;47.028;15.514;2023-05-16T01:26:18;96058.31;;;14.13;71.08
10992;BME280;5549;47.028;15.514;2023-05-16T01:28:51;96057.34;;;14.22;70.76
10992;BME280;5549;47.028;15.514;2023-05-16T01:31:20;96053.38;;;14.26;70.55
10992;BME280;5549;47.028;15.514;2023-05-16T01:33:51;96055.34;;;14.32;70.20
10992;BME280;5549;47.028;15.514;2023-05-16T01:36:25;96042.81;;;14.34;70.51
10992;BME280;5549;47.028;15.514;2023-05-16T01:39:06;96036.19;;;14.22;71.34
10992;BME280;5549;47.028;15.514;2023-05-16T01:41:48;96023.47;;;14.01;72.39
10992;BME280;5549;47.028;15.514;2023-05-16T01:44:27;96016.53;;;14.00;72.51
10992;BME280;5549;47.028;15.514;2023-05-16T01:47:01;96005.00;;;14.01;72.88
10992;BME280;5549;47.028;15.514;2023-05-16T01:49:40;96015.50;;;13.85;73.84
10992;BME280;5549;47.028;15.514;2023-05-16T01:52:14;96005.72;;;13.61;74.76
10992;BME280;5549;47.028;15.514;2023-05-16T01:54:47;95991.50;;;13.46;74.78
10992;BME280;5549;47.028;15.514;2023-05-16T01:57:25;95989.53;;;13.56;73.82
10992;BME280;5549;47.028;15.514;2023-05-16T01:59:56;95976.88;;;13.76;72.83
10992;BME280;5549;47.028;15.514;2023-05-16T02:02:26;95971.44;;;13.77;73.00
10992;BME280;5549;47.028;15.514;2023-05-16T02:04:56;95969.13;;;13.74;73.70
10992;BME280;5549;47.028;15.514;2023-05-16T02:07:24;95965.66;;;13.66;74.05
10992;BME280;5549;47.028;15.514;2023-05-16T02:09:52;95969.13;;;13.74;73.58
10992;BME280;5549;47.028;15.514;2023-05-16T02:12:24;95975.56;;;13.72;75.14
10992;BME280;5549;47.028;15.514;2023-05-16T02:14:51;95975.09;;;13.85;75.07
10992;BME280;5549;47.028;15.514;2023-05-16T02:17:19;95963.56;;;13.94;74.60
10992;BME280;5549;47.028;15.514;2023-05-16T02:19:48;95966.88;;;13.96;74.40
10992;BME280;5549;47.028;15.514;2023-05-16T02:22:15;95971.00;;;13.98;74.02
10992;BME280;5549;47.028;15.514;2023-05-16T02:24:45;95967.88;;;14.03;73.85
10992;BME280;5549;47.028;15.514;2023-05-16T02:27:13;95958.31;;;13.94;74.65
10992;BME280;5549;47.028;15.514;2023-05-16T02:29:44;95956.59;;;13.60;76.13
10992;BME280;5549;47.028;15.514;2023-05-16T02:32:11;95945.41;;;13.82;74.75
10992;BME280;5549;47.028;15.514;2023-05-16T02:34:39;95945.59;;;13.89;74.86
10992;BME280;5549;47.028;15.514;2023-05-16T02:37:08;95955.81;;;13.92;74.69
10992;BME280;5549;47.028;15.514;2023-05-16T02:39:38;95951.03;;;13.96;74.57
10992;BME280;5549;47.028;15.514;2023-05-16T02:42:06;95939.16;;;14.00;74.29
10992;BME280;5549;47.028;15.514;2023-05-16T02:44:34;95947.91;;;14.00;74.39
10992;BME280;5549;47.028;15.514;2023-05-16T02:47:05;95941.97;;;13.98;74.15
10992;BME280;5549;47.028;15.514;2023-05-16T02:49:35;95937.34;;;13.92;74.09
10992;BME280;5549;47.028;15.514;2023-05-16T02:52:05;95930.53;;;13.57;75.81
10992;BME280;5549;47.028;15.514;2023-05-16T02:54:33;95928.56;;;13.75;74.91
10992;BME280;5549;47.028;15.514;2023-05-16T02:57:01;95928.41;;;13.77;74.65
10992;BME280;5549;47.028;15.514;2023-05-16T02:59:29;95931.69;;;13.79;74.85
10992;BME280;5549;47.028;15.514;2023-05-16T03:01:56;95941.06;;;13.57;75.63
10992;BME280;5549;47.028;15.514;2023-05-16T03:04:28;95928.88;;;13.72;74.75
10992;BME280;5549;47.028;15.514;2023-05-16T03:06:56;95942.41;;;13.69;75.27
10992;BME280;5549;47.028;15.514;2023-05-16T03:09:23;95944.06;;;13.70;75.09
10992;BME280;5549;47.028;15.514;2023-05-16T03:11:53;95938.97;;;13.77;74.44
10992;BME280;5549;47.028;15.514;2023-05-16T03:14:20;95950.34;;;13.77;74.56
10992;BME280;5549;47.028;15.514;2023-05-16T03:16:50;95957.44;;;13.77;74.65
10992;BME280;5549;47.028;15.514;2023-05-16T03:19:17;95975.75;;;13.78;74.25
10992;BME280;5549;47.028;15.514;2023-05-16T03:21:48;95985.16;;;13.81;74.13
10992;BME280;5549;47.028;15.514;2023-05-16T03:24:18;95988.59;;;13.81;74.40
10992;BME280;5549;47.028;15.514;2023-05-16T03:26:50;95981.34;;;13.84;74.40
10992;BME280;5549;47.028;15.514;2023-05-16T03:29:20;95987.94;;;13.79;74.69
10992;BME280;5549;47.028;15.514;2023-05-16T03:31:48;96005.09;;;13.84;74.33
10992;BME280;5549;47.028;15.514;2023-05-16T03:34:15;95999.81;;;13.84;74.75
10992;BME280;5549;47.028;15.514;2023-05-16T03:36:43;95993.53;;;13.68;73.95
10992;BME280;5549;47.028;15.514;2023-05-16T03:39:12;95982.75;;;13.37;73.80
10992;BME280;5549;47.028;15.514;2023-05-16T03:41:42;95970.31;;;12.88;73.03
10992;BME280;5549;47.028;15.514;2023-05-16T03:44:11;95971.84;;;12.98;71.81
10992;BME280;5549;47.028;15.514;2023-05-16T03:46:39;95971.69;;;13.34;70.61
10992;BME280;5549;47.028;15.514;2023-05-16T03:49:09;95967.03;;;13.28;70.50
10992;BME280;5549;47.028;15.514;2023-05-16T03:51:36;95963.00;;;13.07;71.12
10992;BME280;5549;47.028;15.514;2023-05-16T03:54:04;95966.78;;;13.05;71.73
10992;BME280;5549;47.028;15.514;2023-05-16T03:56:33;95968.88;;;12.93;72.17
10992;BME280;5549;47.028;15.514;2023-05-16T03:59:01;95966.38;;;12.92;72.77
10992;BME280;5549;47.028;15.514;2023-05-16T04:01:28;95976.47;;;13.04;71.65
10992;BME280;5549;47.028;15.514;2023-05-16T04:03:56;95983.00;;;13.18;72.31
10992;BME280;5549;47.028;15.514;2023-05-16T04:06:24;95987.84;;;13.39;71.75
10992;BME280;5549;47.028;15.514;2023-05-16T04:08:51;95978.41;;;13.28;73.29
10992;BME280;5549;47.028;15.514;2023-05-16T04:11:21;95985.38;;;13.37;72.49
10992;BME280;5549;47.028;15.514;2023-05-16T04:13:50;95989.50;;;13.40;72.49
10992;BME280;5549;47.028;15.514;2023-05-16T04:16:21;95998.06;;;13.34;73.86
10992;BME280;5549;47.028;15.514;2023-05-16T04:18:50;95989.50;;;13.40;72.66
10992;BME280;5549;47.028;15.514;2023-05-16T04:21:18;95995.28;;;13.43;72.76
10992;BME280;5549;47.028;15.514;2023-05-16T04:23:46;95996.97;;;13.53;72.24
10992;BME280;5549;47.028;15.514;2023-05-16T04:26:16;95998.94;;;13.59;72.21
10992;BME280;5549;47.028;15.514;2023-05-16T04:28:47;95994.81;;;13.56;72.65
10992;BME280;5549;47.028;15.514;2023-05-16T04:31:18;95992.03;;;13.58;72.79
10992;BME280;5549;47.028;15.514;2023-05-16T04:33:45;95994.34;;;13.61;72.86
10992;BME280;5549;47.028;15.514;2023-05-16T04:36:13;95986.25;;;13.62;72.15
10992;BME280;5549;47.028;15.514;2023-05-16T04:38:40;95996.81;;;13.62;71.28
10992;BME280;5549;47.028;15.514;2023-05-16T04:41:08;96001.78;;;13.65;71.06
10992;BME280;5549;47.028;15.514;2023-05-16T04:43:38;96000.47;;;13.69;71.58
10992;BME280;5549;47.028;15.514;2023-05-16T04:46:09;96006.72;;;13.68;72.73
10992;BME280;5549;47.028;15.514;2023-05-16T04:48:38;96001.28;;;13.62;72.90
10992;BME280;5549;47.028;15.514;2023-05-16T04:51:08;96008.38;;;13.69;73.32
10992;BME280;5549;47.028;15.514;2023-05-16T04:53:39;96005.25;;;13.74;73.16
10992;BME280;5549;47.028;15.514;2023-05-16T04:56:06;95991.91;;;13.75;73.48
10992;BME280;5549;47.028;15.514;2023-05-16T04:58:36;95987.28;;;13.69;72.97
10992;BME280;5549;47.028;15.514;2023-05-16T05:01:04;95988.25;;;13.68;73.64
10992;BME280;5549;47.028;15.514;2023-05-16T05:03:32;95984.28;;;13.64;72.57
10992;BME280;5549;47.028;15.514;2023-05-16T05:06:05;95986.94;;;13.64;70.87
10992;BME280;5549;47.028;15.514;2023-05-16T05:08:33;95987.28;;;13.69;70.16
10992;BME280;5549;47.028;15.514;2023-05-16T05:11:00;95987.91;;;13.63;70.40
10992;BME280;5549;47.028;15.514;2023-05-16T05:13:28;95986.06;;;13.47;70.88
10992;BME280;5549;47.028;15.514;2023-05-16T05:15:56;95984.22;;;13.40;71.12
10992;BME280;5549;47.028;15.514;2023-05-16T05:18:23;95979.94;;;13.39;71.30
10992;BME280;5549;47.028;15.514;2023-05-16T05:20:53;95969.91;;;13.42;72.07
10992;BME280;5549;47.028;15.514;2023-05-16T05:23:24;95973.41;;;13.59;72.09
10992;BME280;5549;47.028;15.514;2023-05-16T05:25:52;95965.97;;;13.63;72.71
10992;BME280;5549;47.028;15.514;2023-05-16T05:28:19;95963.34;;;13.71;73.17
10992;BME280;5549;47.028;15.514;2023-05-16T05:30:47;95964.53;;;13.76;73.77
10992;BME280;5549;47.028;15.514;2023-05-16T05:33:17;95951.66;;;13.81;74.18
10992;BME280;5549;47.028;15.514;2023-05-16T05:35:44;95952.81;;;13.79;74.91
10992;BME280;5549;47.028;15.514;2023-05-16T05:38:12;95961.53;;;13.63;77.21
10992;BME280;5549;47.028;15.514;2023-05-16T05:40:41;95970.91;;;13.58;77.97
10992;BME280;5549;47.028;15.514;2023-05-16T05:43:11;95974.03;;;13.45;78.60
10992;BME280;5549;47.028;15.514;2023-05-16T05:45:41;95972.72;;;13.57;78.06
10992;BME280;5549;47.028;15.514;2023-05-16T05:48:08;95971.44;;;13.69;77.59
10992;BME280;5549;47.028;15.514;2023-05-16T05:50:39;95986.59;;;13.67;78.25
10992;BME280;5549;47.028;15.514;2023-05-16T05:53:10;95982.47;;;13.57;78.72
10992;BME280;5549;47.028;15.514;2023-05-16T05:55:41;95984.94;;;13.66;78.36
10992;BME280;5549;47.028;15.514;2023-05-16T05:58:11;95978.38;;;13.70;78.38
10992;BME280;5549;47.028;15.514;2023-05-16T06:00:41;95986.56;;;13.51;80.59
10992;BME280;5549;47.028;15.514;2023-05-16T06:03:08;95981.63;;;13.56;80.58
10992;BME280;5549;47.028;15.514;2023-05-16T06:05:36;95977.03;;;13.66;80.14
10992;BME280;5549;47.028;15.514;2023-05-16T06:08:06;95975.25;;;13.75;79.98
10992;BME280;5549;47.028;15.514;2023-05-16T06:10:33;95975.75;;;13.78;79.96
10992;BME280;5549;47.028;15.514;2023-05-16T06:13:02;95985.16;;;13.81;80.23
10992;BME280;5549;47.028;15.514;2023-05-16T06:15:32;95988.94;;;13.78;80.51
10992;BME280;5549;47.028;15.514;2023-05-16T06:18:02;95997.84;;;13.86;82.07
10992;BME280;5549;47.028;15.514;2023-05-16T06:20:32;96007.63;;;14.01;82.17
10992;BME280;5549;47.028;15.514;2023-05-16T06:23:02;96016.41;;;14.18;81.69
10992;BME280;5549;47.028;15.514;2023-05-16T06:25:32;96023.00;;;14.30;81.13
10992;BME280;5549;47.028;15.514;2023-05-16T06:27:59;96034.22;;;14.40;81.17
10992;BME280;5549;47.028;15.514;2023-05-16T06:30:31;96053.25;;;14.52;81.02
10992;BME280;5549;47.028;15.514;2023-05-16T06:32:58;96067.28;;;14.61;79.91
10992;BME280;5549;47.028;15.514;2023-05-16T06:35:26;96078.84;;;14.68;79.13
10992;BME280;5549;47.028;15.514;2023-05-16T06:37:53;96093.38;;;14.72;79.18
10992;BME280;5549;47.028;15.514;2023-05-16T06:40:21;96099.66;;;14.55;79.58
10992;BME280;5549;47.028;15.514;2023-05-16T06:42:49;96100.66;;;14.62;79.24
10992;BME280;5549;47.028;15.514;2023-05-16T06:45:16;96099.66;;;14.71;78.98
10992;BME280;5549;47.028;15.514;2023-05-16T06:47:46;96092.03;;;14.92;78.01
10992;BME280;5549;47.028;15.514;2023-05-16T06:50:13;96096.84;;;14.89;77.00
10992;BME280;5549;47.028;15.514;2023-05-16T06:52:43;96099.28;;;15.06;76.58
10992;BME280;5549;47.028;15.514;2023-05-16T06:55:11;96094.63;;;15.17;75.73
10992;BME280;5549;47.028;15.514;2023-05-16T06:57:41;96089.00;;;15.20;75.57
10992;BME280;5549;47.028;15.514;2023-05-16T07:00:09;96083.03;;;15.34;74.82
10992;BME280;5549;47.028;15.514;2023-05-16T07:02:37;96079.84;;;15.47;74.27
10992;BME280;5549;47.028;15.514;2023-05-16T07:05:07;96078.34;;;15.52;73.67
10992;BME280;5549;47.028;15.514;2023-05-16T07:07:37;96081.66;;;15.62;73.20
10992;BME280;5549;47.028;15.514;2023-05-16T07:10:06;96072.22;;;15.68;72.92
10992;BME280;5549;47.028;15.514;2023-05-16T07:12:35;96064.06;;;15.78;72.68
10992;BME280;5549;47.028;15.514;2023-05-16T07:15:04;96056.53;;;15.89;72.51
10992;BME280;5549;47.028;15.514;2023-05-16T07:17:32;96052.03;;;15.98;71.62
10992;BME280;5549;47.028;15.514;2023-05-16T07:20:00;96043.44;;;15.96;71.46
10992;BME280;5549;47.028;15.514;2023-05-16T07:22:29;96037.13;;;15.97;71.05
10992;BME280;5549;47.028;15.514;2023-05-16T07:24:56;96036.50;;;15.95;71.36
10992;BME280;5549;47.028;15.514;2023-05-16T07:27:26;96035.84;;;15.93;71.14
10992;BME280;5549;47.028;15.514;2023-05-16T07:29:56;96025.06;;;15.94;71.08
10992;BME280;5549;47.028;15.514;2023-05-16T07:32:26;96025.81;;;15.80;71.51
10992;BME280;5549;47.028;15.514;2023-05-16T07:34:56;96025.34;;;15.77;71.98
10992;BME280;5549;47.028;15.514;2023-05-16T07:37:23;96027.00;;;15.78;71.81
10992;BME280;5549;47.028;15.514;2023-05-16T07:39:52;96030.59;;;15.85;71.75
10992;BME280;5549;47.028;15.514;2023-05-16T07:42:22;96040.47;;;15.91;71.97
10992;BME280;5549;47.028;15.514;2023-05-16T07:44:52;96040.13;;;15.94;71.68
10992;BME280;5549;47.028;15.514;2023-05-16T07:47:19;96040.78;;;15.96;71.93
10992;BME280;5549;47.028;15.514;2023-05-16T07:49:47;96021.91;;;15.99;71.54
10992;BME280;5549;47.028;15.514;2023-05-16T07:52:15;96005.97;;;15.76;71.74
10992;BME280;5549;47.028;15.514;2023-05-16T07:54:45;96001.50;;;15.77;71.87
10992;BME280;5549;47.028;15.514;2023-05-16T07:57:14;95997.56;;;15.73;72.24
10992;BME280;5549;47.028;15.514;2023-05-16T07:59:42;95997.28;;;15.67;73.08
10992;BME280;5549;47.028;15.514;2023-05-16T08:02:10;95992.16;;;15.58;73.81
10992;BME280;5549;47.028;15.514;2023-05-16T08:04:38;95987.19;;;15.63;74.23
10992;BME280;5549;47.028;15.514;2023-05-16T08:07:07;95990.66;;;15.63;74.25
10992;BME280;5549;47.028;15.514;2023-05-16T08:09:36;95981.03;;;15.70;74.23
10992;BME280;5549;47.028;15.514;2023-05-16T08:12:05;95989.63;;;15.73;74.24
10992;BME280;5549;47.028;15.514;2023-05-16T08:14:33;95991.56;;;15.79;73.64
10992;BME280;5549;47.028;15.514;2023-05-16T08:17:04;95988.94;;;15.79;73.65
10992;BME280;5549;47.028;15.514;2023-05-16T08:19:34;95994.88;;;15.81;73.61
10992;BME280;5549;47.028;15.514;2023-05-16T08:22:06;95994.53;;;15.84;73.57
10992;BME280;5549;47.028;15.514;2023-05-16T08:24:35;96004.25;;;15.91;73.11
10992;BME280;5549;47.028;15.514;2023-05-16T08:27:05;96001.06;;;15.96;72.85
10992;BME280;5549;47.028;15.514;2023-05-16T08:29:35;96012.13;;;15.99;72.54
10992;BME280;5549;47.028;15.514;2023-05-16T08:32:07;96007.78;;;16.07;72.35
10992;BME280;5549;47.028;15.514;2023-05-16T08:34:36;96018.84;;;16.10;72.21
10992;BME280;5549;47.028;15.514;2023-05-16T08:37:04;96011.59;;;16.04;72.92
10992;BME280;5549;47.028;15.514;2023-05-16T08:39:34;96027.19;;;15.99;72.14
10992;BME280;5549;47.028;15.514;2023-05-16T08:42:04;96029.19;;;15.97;72.74
10992;BME280;5549;47.028;15.514;2023-05-16T08:44:35;96037.97;;;15.97;73.05
10992;BME280;5549;47.028;15.514;2023-05-16T08:47:09;96034.78;;;16.02;72.25
10992;BME280;5549;47.028;15.514;2023-05-16T08:49:39;96030.63;;;16.08;72.32
10992;BME280;5549;47.028;15.514;2023-05-16T08:52:09;96013.06;;;16.07;72.90
10992;BME280;5549;47.028;15.514;2023-05-16T08:54:40;95989.56;;;15.81;74.43
10992;BME280;5549;47.028;15.514;2023-05-16T08:57:08;95984.94;;;15.83;75.24
10992;BME280;5549;47.028;15.514;2023-05-16T08:59:37;95991.13;;;15.98;75.00
10992;BME280;5549;47.028;15.514;2023-05-16T09:02:08;95998.16;;;15.83;76.03
10992;BME280;5549;47.028;15.514;2023-05-16T09:04:37;95994.16;;;15.64;76.79
10992;BME280;5549;47.028;15.514;2023-05-16T09:07:04;95993.31;;;15.63;77.46
10992;BME280;5549;47.028;15.514;2023-05-16T09:09:32;96000.09;;;15.58;77.51
10992;BME280;5549;47.028;15.514;2023-05-16T09:11:59;95998.28;;;15.58;77.24
10992;BME280;5549;47.028;15.514;2023-05-16T09:14:27;95997.28;;;15.51;78.17
10992;BME280;5549;47.028;15.514;2023-05-16T09:17:07;95998.31;;;15.42;78.72
10992;BME280;5549;47.028;15.514;2023-05-16T09:19:38;96007.47;;;15.31;79.28
10992;BME280;5549;47.028;15.514;2023-05-16T09:22:07;96004.47;;;15.34;78.87
10992;BME280;5549;47.028;15.514;2023-05-16T09:24:38;96004.31;;;15.36;79.77
10992;BME280;5549;47.028;15.514;2023-05-16T09:27:09;96016.22;;;15.32;79.89
10992;BME280;5549;47.028;15.514;2023-05-16T09:29:39;96016.22;;;15.32;81.35
10992;BME280;5549;47.028;15.514;2023-05-16T09:32:16;96019.00;;;15.38;80.01
10992;BME280;5549;47.028;15.514;2023-05-16T09:34:44;96028.78;;;15.38;79.77
10992;BME280;5549;47.028;15.514;2023-05-16T09:37:14;96034.38;;;15.43;79.56
10992;BME280;5549;47.028;15.514;2023-05-16T09:39:46;96020.47;;;15.49;79.39
10992;BME280;5549;47.028;15.514;2023-05-16T09:42:17;96017.81;;;15.49;79.60
10992;BME280;5549;47.028;15.514;2023-05-16T09:44:50;96017.81;;;15.49;79.25
10992;BME280;5549;47.028;15.514;2023-05-16T09:47:21;96029.38;;;15.48;79.27
10992;BME280;5549;47.028;15.514;2023-05-16T09:49:52;96036.69;;;15.46;79.23
10992;BME280;5549;47.028;15.514;2023-05-16T09:52:19;96037.81;;;15.52;79.41
10992;BME280;5549;47.028;15.514;2023-05-16T09:54:47;96040.53;;;15.35;79.60
10992;BME280;5549;47.028;15.514;2023-05-16T09:57:17;96032.22;;;15.47;79.17
10992;BME280;5549;47.028;15.514;2023-05-16T09:59:48;96036.69;;;15.46;79.13
10992;BME280;5549;47.028;15.514;2023-05-16T10:02:20;96033.03;;;15.47;79.07
10992;BME280;5549;47.028;15.514;2023-05-16T10:04:50;96009.44;;;15.37;80.01
10992;BME280;5549;47.028;15.514;2023-05-16T10:07:18;95998.78;;;15.06;81.62
10992;BME280;5549;47.028;15.514;2023-05-16T10:09:48;95992.00;;;15.12;81.84
10992;BME280;5549;47.028;15.514;2023-05-16T10:12:18;95994.28;;;15.23;81.34
10992;BME280;5549;47.028;15.514;2023-05-16T10:14:49;95989.13;;;15.30;81.56
10992;BME280;5549;47.028;15.514;2023-05-16T10:17:19;95997.88;;;15.30;81.20
10992;BME280;5549;47.028;15.514;2023-05-16T10:19:48;95993.44;;;15.23;81.25
10992;BME280;5549;47.028;15.514;2023-05-16T10:22:21;95991.94;;;15.28;81.28
10992;BME280;5549;47.028;15.514;2023-05-16T10:25:06;95993.09;;;15.26;80.24
10992;BME280;5549;47.028;15.514;2023-05-16T10:27:38;96011.47;;;15.19;80.70
10992;BME280;5549;47.028;15.514;2023-05-16T10:30:07;96005.19;;;15.20;80.35
10992;BME280;5549;47.028;15.514;2023-05-16T10:32:40;95990.94;;;14.82;81.87
10992;BME280;5549;47.028;15.514;2023-05-16T10:35:08;95968.63;;;14.85;82.66
10992;BME280;5549;47.028;15.514;2023-05-16T10:37:39;95970.47;;;14.68;83.29
10992;BME280;5549;47.028;15.514;2023-05-16T10:40:09;95974.13;;;14.67;82.98
10992;BME280;5549;47.028;15.514;2023-05-16T10:42:37;95958.91;;;14.69;82.97
10992;BME280;5549;47.028;15.514;2023-05-16T10:45:16;95941.78;;;14.57;84.20
10992;BME280;5549;47.028;15.514;2023-05-16T10:47:56;95939.63;;;14.60;85.12
10992;BME280;5549;47.028;15.514;2023-05-16T10:50:36;95942.75;;;14.39;85.59
10992;BME280;5549;47.028;15.514;2023-05-16T10:53:19;95932.88;;;14.50;85.04
10992;BME280;5549;47.028;15.514;2023-05-16T10:56:05;95928.06;;;14.53;85.05
10992;BME280;5549;47.028;15.514;2023-05-16T10:58:45;95917.66;;;14.60;84.87
10992;BME280;5549;47.028;15.514;2023-05-16T11:01:24;95919.66;;;14.25;86.60
10992;BME280;5549;47.028;15.514;2023-05-16T11:04:10;95915.69;;;14.29;87.00
10992;BME280;5549;47.028;15.514;2023-05-16T11:06:48;95904.97;;;14.39;87.06
10992;BME280;5549;47.028;15.514;2023-05-16T11:09:23;95894.22;;;14.49;86.99
10992;BME280;5549;47.028;15.514;2023-05-16T11:11:59;95885.75;;;14.69;86.50
10992;BME280;5549;47.028;15.514;2023-05-16T11:14:35;95888.16;;;14.87;87.58
10992;BME280;5549;47.028;15.514;2023-05-16T11:17:11;95897.50;;;15.06;87.24
10992;BME280;5549;47.028;15.514;2023-05-16T11:19:43;95894.59;;;15.24;86.24
10992;BME280;5549;47.028;15.514;2023-05-16T11:22:23;95897.09;;;15.17;85.21
10992;BME280;5549;47.028;15.514;2023-05-16T11:24:57;95898.22;;;15.23;85.08
10992;BME280;5549;47.028;15.514;2023-05-16T11:27:29;95899.53;;;15.27;84.98
10992;BME280;5549;47.028;15.514;2023-05-16T11:30:11;95900.81;;;15.31;83.53
10992;BME280;5549;47.028;15.514;2023-05-16T11:32:41;95906.28;;;14.98;84.48
10992;BME280;5549;47.028;15.514;2023-05-16T11:35:12;95914.19;;;15.06;83.35
10992;BME280;5549;47.028;15.514;2023-05-16T11:37:40;95910.09;;;15.27;83.29
10992;BME280;5549;47.028;15.514;2023-05-16T11:40:11;95901.13;;;15.05;84.49
10992;BME280;5549;47.028;15.514;2023-05-16T11:42:41;95892.31;;;15.13;83.87
10992;BME280;5549;47.028;15.514;2023-05-16T11:45:10;95886.34;;;14.88;80.91
10992;BME280;5549;47.028;15.514;2023-05-16T11:47:39;95888.28;;;14.38;78.88
10992;BME280;5549;47.028;15.514;2023-05-16T11:50:12;95880.09;;;14.01;79.88
10992;BME280;5549;47.028;15.514;2023-05-16T11:52:44;95878.41;;;14.16;80.19
10992;BME280;5549;47.028;15.514;2023-05-16T11:55:12;95875.78;;;14.16;80.71
10992;BME280;5549;47.028;15.514;2023-05-16T11:57:42;95874.75;;;14.33;79.77
10992;BME280;5549;47.028;15.514;2023-05-16T12:00:16;95866.50;;;14.36;80.75
10992;BME280;5549;47.028;15.514;2023-05-16T12:02:45;95864.81;;;14.60;79.93
10992;BME280;5549;47.028;15.514;2023-05-16T12:05:16;95871.41;;;14.64;80.58
10992;BME280;5549;47.028;15.514;2023-05-16T12:07:47;95877.00;;;14.69;81.21
10992;BME280;5549;47.028;15.514;2023-05-16T12:10:18;95876.38;;;14.59;81.86
10992;BME280;5549;47.028;15.514;2023-05-16T12:12:50;95859.50;;;14.68;81.71
10992;BME280;5549;47.028;15.514;2023-05-16T12:15:18;95850.97;;;14.50;82.14
10992;BME280;5549;47.028;15.514;2023-05-16T12:17:46;95845.66;;;14.58;82.20
10992;BME280;5549;47.028;15.514;2023-05-16T12:20:18;95846.75;;;14.71;81.07
10992;BME280;5549;47.028;15.514;2023-05-16T12:22:46;95854.84;;;14.70;80.81
10992;BME280;5549;47.028;15.514;2023-05-16T12:25:28;95848.91;;;14.68;81.17
10992;BME280;5549;47.028;15.514;2023-05-16T12:28:00;95839.50;;;14.65;80.99
10992;BME280;5549;47.028;15.514;2023-05-16T12:30:30;95845.66;;;14.58;81.40
10992;BME280;5549;47.028;15.514;2023-05-16T12:33:02;95839.31;;;14.75;81.07
10992;BME280;5549;47.028;15.514;2023-05-16T12:35:36;95841.94;;;14.75;80.82
10992;BME280;5549;47.028;15.514;2023-05-16T12:38:04;95841.84;;;14.60;80.89
10992;BME280;5549;47.028;15.514;2023-05-16T12:40:32;95842.47;;;14.07;82.04
10992;BME280;5549;47.028;15.514;2023-05-16T12:43:04;95840.09;;;14.44;80.97
10992;BME280;5549;47.028;15.514;2023-05-16T12:45:41;95825.41;;;14.42;80.34
10992;BME280;5549;47.028;15.514;2023-05-16T12:48:12;95831.50;;;14.34;81.71
10992;BME280;5549;47.028;15.514;2023-05-16T12:50:41;95825.28;;;14.19;81.94
10992;BME280;5549;47.028;15.514;2023-05-16T12:53:12;95824.06;;;14.38;82.19
10992;BME280;5549;47.028;15.514;2023-05-16T12:55:40;95826.50;;;14.56;82.11
10992;BME280;5549;47.028;15.514;2023-05-16T12:58:09;95822.22;;;14.55;83.37
10992;BME280;5549;47.028;15.514;2023-05-16T13:00:39;95821.31;;;14.70;83.81
10992;BME280;5549;47.028;15.514;2023-05-16T13:03:09;95812.19;;;14.81;81.90
10992;BME280;5549;47.028;15.514;2023-05-16T13:05:41;95800.56;;;14.90;82.98
10992;BME280;5549;47.028;15.514;2023-05-16T13:08:08;95790.47;;;14.94;82.06
10992;BME280;5549;47.028;15.514;2023-05-16T13:10:36;95796.88;;;14.99;82.92
10992;BME280;5549;47.028;15.514;2023-05-16T13:13:03;95798.59;;;15.15;82.22
10992;BME280;5549;47.028;15.514;2023-05-16T13:15:33;95793.84;;;15.11;81.71